sensor_id;sensor_type;location;lat;lon;timestamp;temperature;humidity
45807;DHT22;31507;51.494;7.518;2022-09-09T00:01:49;14.50;99.90
45807;DHT22;31507;51.494;7.518;2022-09-09T00:21:16;14.10;99.90
45807;DHT22;31507;51.494;7.518;2022-09-09T00:23:53;14.00;99.90
45807;DHT22;31507;51.494;7.518;2022-09-09T00:26:34;14.00;99.90
45807;DHT22;31507;51.494;7.518;2022-09-09T00:29:26;13.90;99.90
45807;DHT22;31507;51.494;7.518;2022-09-09T00:31:57;13.90;99.90
45807;DHT22;31507;51.494;7.518;2022-09-09T00:34:25;13.90;99.90
45807;DHT22;31507;51.494;7.518;2022-09-09T00:36:54;13.80;99.90
45807;DHT22;31507;51.494;7.518;2022-09-09T00:39:46;13.80;99.90
45807;DHT22;31507;51.494;7.518;2022-09-09T00:42:41;13.80;99.90
45807;DHT22;31507;51.494;7.518;2022-09-09T00:55:28;13.90;99.90
45807;DHT22;31507;51.494;7.518;2022-09-09T00:57:58;13.90;99.90
45807;DHT22;31507;51.494;7.518;2022-09-09T01:06:14;13.90;99.90
45807;DHT22;31507;51.494;7.518;2022-09-09T01:12:09;13.90;99.90
45807;DHT22;31507;51.494;7.518;2022-09-09T01:17:23;13.90;99.90
45807;DHT22;31507;51.494;7.518;2022-09-09T01:20:24;13.90;99.90
45807;DHT22;31507;51.494;7.518;2022-09-09T01:23:17;13.90;99.90
45807;DHT22;31507;51.494;7.518;2022-09-09T01:26:10;13.80;99.90
45807;DHT22;31507;51.494;7.518;2022-09-09T01:28:39;13.90;99.90
45807;DHT22;31507;51.494;7.518;2022-09-09T01:31:06;13.80;99.90
45807;DHT22;31507;51.494;7.518;2022-09-09T01:33:34;13.80;99.90
45807;DHT22;31507;51.494;7.518;2022-09-09T01:36:13;13.70;99.90
45807;DHT22;31507;51.494;7.518;2022-09-09T01:38:41;13.80;99.90
45807;DHT22;31507;51.494;7.518;2022-09-09T01:41:07;13.80;99.90
45807;DHT22;31507;51.494;7.518;2022-09-09T01:43:32;13.80;99.90
45807;DHT22;31507;51.494;7.518;2022-09-09T01:46:00;13.90;99.90
45807;DHT22;31507;51.494;7.518;2022-09-09T01:48:27;13.90;99.90
45807;DHT22;31507;51.494;7.518;2022-09-09T01:50:53;13.80;99.90
45807;DHT22;31507;51.494;7.518;2022-09-09T01:53:20;13.80;99.90
45807;DHT22;31507;51.494;7.518;2022-09-09T01:56:21;13.80;99.90
45807;DHT22;31507;51.494;7.518;2022-09-09T02:07:19;14.00;99.90
45807;DHT22;31507;51.494;7.518;2022-09-09T02:09:50;14.00;99.90
45807;DHT22;31507;51.494;7.518;2022-09-09T02:12:19;14.10;99.90
45807;DHT22;31507;51.494;7.518;2022-09-09T02:14:52;14.20;99.90
45807;DHT22;31507;51.494;7.518;2022-09-09T02:17:31;14.20;99.90
45807;DHT22;31507;51.494;7.518;2022-09-09T02:20:07;14.30;99.90
45807;DHT22;31507;51.494;7.518;2022-09-09T02:22:35;14.30;99.90
45807;DHT22;31507;51.494;7.518;2022-09-09T02:25:07;14.30;99.90
45807;DHT22;31507;51.494;7.518;2022-09-09T02:27:33;14.40;99.90
45807;DHT22;31507;51.494;7.518;2022-09-09T02:30:00;14.40;99.90
45807;DHT22;31507;51.494;7.518;2022-09-09T02:32:29;14.40;99.90
45807;DHT22;31507;51.494;7.518;2022-09-09T02:35:12;14.50;99.90
45807;DHT22;31507;51.494;7.518;2022-09-09T02:37:40;14.40;99.90
45807;DHT22;31507;51.494;7.518;2022-09-09T02:40:10;14.30;99.90
45807;DHT22;31507;51.494;7.518;2022-09-09T02:42:45;14.30;99.90
45807;DHT22;31507;51.494;7.518;2022-09-09T02:45:12;14.30;99.90
45807;DHT22;31507;51.494;7.518;2022-09-09T02:50:17;14.30;99.90
45807;DHT22;31507;51.494;7.518;2022-09-09T02:52:52;14.30;99.90
45807;DHT22;31507;51.494;7.518;2022-09-09T02:57:58;14.30;99.90
45807;DHT22;31507;51.494;7.518;2022-09-09T03:00:26;14.30;99.90
45807;DHT22;31507;51.494;7.518;2022-09-09T03:02:53;14.30;99.90
45807;DHT22;31507;51.494;7.518;2022-09-09T03:05:20;14.20;99.90
45807;DHT22;31507;51.494;7.518;2022-09-09T03:07:46;14.20;99.90
45807;DHT22;31507;51.494;7.518;2022-09-09T03:10:12;14.20;99.90
45807;DHT22;31507;51.494;7.518;2022-09-09T03:12:38;14.20;99.90
45807;DHT22;31507;51.494;7.518;2022-09-09T03:15:05;14.10;99.90
45807;DHT22;31507;51.494;7.518;2022-09-09T03:17:31;14.10;99.90
45807;DHT22;31507;51.494;7.518;2022-09-09T03:19:57;14.00;99.90
45807;DHT22;31507;51.494;7.518;2022-09-09T03:22:24;14.00;99.90
45807;DHT22;31507;51.494;7.518;2022-09-09T03:24:51;14.00;99.90
45807;DHT22;31507;51.494;7.518;2022-09-09T03:27:16;14.00;99.90
45807;DHT22;31507;51.494;7.518;2022-09-09T03:29:42;14.00;99.90
45807;DHT22;31507;51.494;7.518;2022-09-09T03:32:10;14.00;99.90
45807;DHT22;31507;51.494;7.518;2022-09-09T03:34:41;13.90;99.90
45807;DHT22;31507;51.494;7.518;2022-09-09T03:37:10;14.00;99.90
45807;DHT22;31507;51.494;7.518;2022-09-09T03:39:35;14.10;99.90
45807;DHT22;31507;51.494;7.518;2022-09-09T03:42:01;14.10;99.90
45807;DHT22;31507;51.494;7.518;2022-09-09T03:44:31;14.10;99.90
45807;DHT22;31507;51.494;7.518;2022-09-09T03:46:57;14.00;99.90
45807;DHT22;31507;51.494;7.518;2022-09-09T03:49:22;14.00;99.90
45807;DHT22;31507;51.494;7.518;2022-09-09T03:51:49;14.00;99.90
45807;DHT22;31507;51.494;7.518;2022-09-09T03:54:15;14.00;99.90
45807;DHT22;31507;51.494;7.518;2022-09-09T03:56:40;13.90;99.90
45807;DHT22;31507;51.494;7.518;2022-09-09T03:59:07;13.90;99.90
45807;DHT22;31507;51.494;7.518;2022-09-09T04:01:34;13.80;99.90
45807;DHT22;31507;51.494;7.518;2022-09-09T04:04:00;13.80;99.90
45807;DHT22;31507;51.494;7.518;2022-09-09T04:06:28;13.80;99.90
45807;DHT22;31507;51.494;7.518;2022-09-09T04:08:54;13.80;99.90
45807;DHT22;31507;51.494;7.518;2022-09-09T04:11:20;13.80;99.90
45807;DHT22;31507;51.494;7.518;2022-09-09T04:13:48;13.80;99.90
45807;DHT22;31507;51.494;7.518;2022-09-09T04:16:14;13.80;99.90
45807;DHT22;31507;51.494;7.518;2022-09-09T04:18:39;13.80;99.90
45807;DHT22;31507;51.494;7.518;2022-09-09T04:21:05;13.80;99.90
45807;DHT22;31507;51.494;7.518;2022-09-09T04:23:32;13.80;99.90
45807;DHT22;31507;51.494;7.518;2022-09-09T04:26:00;13.80;99.90
45807;DHT22;31507;51.494;7.518;2022-09-09T04:28:28;13.80;99.90
45807;DHT22;31507;51.494;7.518;2022-09-09T04:30:54;13.80;99.90
45807;DHT22;31507;51.494;7.518;2022-09-09T04:33:20;13.80;99.90
45807;DHT22;31507;51.494;7.518;2022-09-09T04:35:48;13.80;99.90
45807;DHT22;31507;51.494;7.518;2022-09-09T04:38:14;13.80;99.90
45807;DHT22;31507;51.494;7.518;2022-09-09T04:40:49;13.90;99.90
45807;DHT22;31507;51.494;7.518;2022-09-09T04:43:15;13.90;99.90
45807;DHT22;31507;51.494;7.518;2022-09-09T04:45:41;14.00;99.90
45807;DHT22;31507;51.494;7.518;2022-09-09T04:48:08;14.00;99.90
45807;DHT22;31507;51.494;7.518;2022-09-09T04:50:35;14.10;99.90
45807;DHT22;31507;51.494;7.518;2022-09-09T04:53:04;14.10;99.90
45807;DHT22;31507;51.494;7.518;2022-09-09T04:55:31;14.10;99.90
45807;DHT22;31507;51.494;7.518;2022-09-09T04:57:57;14.10;99.90
45807;DHT22;31507;51.494;7.518;2022-09-09T05:00:25;14.20;99.90
45807;DHT22;31507;51.494;7.518;2022-09-09T05:02:51;14.20;99.90
45807;DHT22;31507;51.494;7.518;2022-09-09T05:05:17;14.20;99.90
45807;DHT22;31507;51.494;7.518;2022-09-09T05:07:43;14.20;99.90
45807;DHT22;31507;51.494;7.518;2022-09-09T05:10:09;14.30;99.90
45807;DHT22;31507;51.494;7.518;2022-09-09T05:12:36;14.30;99.90
45807;DHT22;31507;51.494;7.518;2022-09-09T05:15:01;14.30;99.90
45807;DHT22;31507;51.494;7.518;2022-09-09T05:17:27;14.30;99.90
45807;DHT22;31507;51.494;7.518;2022-09-09T05:19:53;14.30;99.90
45807;DHT22;31507;51.494;7.518;2022-09-09T05:22:19;14.30;99.90
45807;DHT22;31507;51.494;7.518;2022-09-09T05:24:49;14.30;99.90
45807;DHT22;31507;51.494;7.518;2022-09-09T05:27:17;14.40;99.90
45807;DHT22;31507;51.494;7.518;2022-09-09T05:29:45;14.40;99.90
45807;DHT22;31507;51.494;7.518;2022-09-09T05:32:10;14.40;99.90
45807;DHT22;31507;51.494;7.518;2022-09-09T05:34:36;14.50;99.90
45807;DHT22;31507;51.494;7.518;2022-09-09T05:37:03;14.50;99.90
45807;DHT22;31507;51.494;7.518;2022-09-09T05:39:29;14.50;99.90
45807;DHT22;31507;51.494;7.518;2022-09-09T05:41:55;14.60;99.90
45807;DHT22;31507;51.494;7.518;2022-09-09T05:44:20;14.60;99.90
45807;DHT22;31507;51.494;7.518;2022-09-09T05:46:48;14.60;99.90
45807;DHT22;31507;51.494;7.518;2022-09-09T05:49:15;14.60;99.90
45807;DHT22;31507;51.494;7.518;2022-09-09T05:51:41;14.70;99.90
45807;DHT22;31507;51.494;7.518;2022-09-09T05:54:08;14.70;99.90
45807;DHT22;31507;51.494;7.518;2022-09-09T05:56:34;14.70;99.90
45807;DHT22;31507;51.494;7.518;2022-09-09T05:58:59;14.80;99.90
45807;DHT22;31507;51.494;7.518;2022-09-09T06:01:31;14.80;99.90
45807;DHT22;31507;51.494;7.518;2022-09-09T06:03:57;14.80;99.90
45807;DHT22;31507;51.494;7.518;2022-09-09T06:06:25;14.90;99.90
45807;DHT22;31507;51.494;7.518;2022-09-09T06:08:56;14.90;99.90
45807;DHT22;31507;51.494;7.518;2022-09-09T06:11:31;15.00;99.90
45807;DHT22;31507;51.494;7.518;2022-09-09T06:13:57;15.00;99.90
45807;DHT22;31507;51.494;7.518;2022-09-09T06:16:25;15.10;99.90
45807;DHT22;31507;51.494;7.518;2022-09-09T06:18:52;15.20;99.90
45807;DHT22;31507;51.494;7.518;2022-09-09T06:21:24;15.20;99.90
45807;DHT22;31507;51.494;7.518;2022-09-09T06:23:50;15.30;99.90
45807;DHT22;31507;51.494;7.518;2022-09-09T06:26:24;15.30;99.90
45807;DHT22;31507;51.494;7.518;2022-09-09T06:28:52;15.40;99.90
45807;DHT22;31507;51.494;7.518;2022-09-09T06:31:23;15.50;99.90
45807;DHT22;31507;51.494;7.518;2022-09-09T06:33:51;15.50;99.90
45807;DHT22;31507;51.494;7.518;2022-09-09T06:36:23;15.60;99.90
45807;DHT22;31507;51.494;7.518;2022-09-09T06:38:49;15.60;99.90
45807;DHT22;31507;51.494;7.518;2022-09-09T06:41:17;15.60;99.90
45807;DHT22;31507;51.494;7.518;2022-09-09T06:43:44;15.70;99.90
45807;DHT22;31507;51.494;7.518;2022-09-09T06:46:13;15.70;99.90
45807;DHT22;31507;51.494;7.518;2022-09-09T06:48:40;15.70;99.90
45807;DHT22;31507;51.494;7.518;2022-09-09T06:51:08;15.70;99.90
45807;DHT22;31507;51.494;7.518;2022-09-09T06:53:35;15.70;99.90
45807;DHT22;31507;51.494;7.518;2022-09-09T06:56:21;15.70;99.90
45807;DHT22;31507;51.494;7.518;2022-09-09T06:58:52;15.80;99.90
45807;DHT22;31507;51.494;7.518;2022-09-09T07:01:19;15.80;99.90
45807;DHT22;31507;51.494;7.518;2022-09-09T07:03:52;16.00;99.90
45807;DHT22;31507;51.494;7.518;2022-09-09T07:06:24;16.00;99.90
45807;DHT22;31507;51.494;7.518;2022-09-09T07:08:54;16.10;99.90
45807;DHT22;31507;51.494;7.518;2022-09-09T07:11:23;16.10;99.90
45807;DHT22;31507;51.494;7.518;2022-09-09T07:13:49;16.00;99.90
45807;DHT22;31507;51.494;7.518;2022-09-09T07:16:17;16.00;99.90
45807;DHT22;31507;51.494;7.518;2022-09-09T07:18:43;16.00;99.90
45807;DHT22;31507;51.494;7.518;2022-09-09T07:21:11;15.90;99.90
45807;DHT22;31507;51.494;7.518;2022-09-09T07:23:38;15.90;99.90
45807;DHT22;31507;51.494;7.518;2022-09-09T07:26:09;15.90;99.90
45807;DHT22;31507;51.494;7.518;2022-09-09T07:28:35;15.90;99.90
45807;DHT22;31507;51.494;7.518;2022-09-09T07:31:01;16.10;99.90
45807;DHT22;31507;51.494;7.518;2022-09-09T07:33:28;16.30;99.90
45807;DHT22;31507;51.494;7.518;2022-09-09T07:36:08;16.70;99.90
45807;DHT22;31507;51.494;7.518;2022-09-09T07:38:48;17.00;99.90
45807;DHT22;31507;51.494;7.518;2022-09-09T07:41:17;17.30;99.90
45807;DHT22;31507;51.494;7.518;2022-09-09T07:43:44;17.80;99.90
45807;DHT22;31507;51.494;7.518;2022-09-09T07:46:12;18.00;99.90
45807;DHT22;31507;51.494;7.518;2022-09-09T07:48:50;18.20;99.90
45807;DHT22;31507;51.494;7.518;2022-09-09T07:51:24;18.40;99.90
45807;DHT22;31507;51.494;7.518;2022-09-09T07:53:58;18.70;99.90
45807;DHT22;31507;51.494;7.518;2022-09-09T07:56:26;19.10;99.90
45807;DHT22;31507;51.494;7.518;2022-09-09T07:58:53;18.70;99.90
45807;DHT22;31507;51.494;7.518;2022-09-09T08:01:30;18.50;99.90
45807;DHT22;31507;51.494;7.518;2022-09-09T08:04:01;18.50;99.90
45807;DHT22;31507;51.494;7.518;2022-09-09T08:06:28;18.50;99.90
45807;DHT22;31507;51.494;7.518;2022-09-09T08:08:55;18.50;99.90
45807;DHT22;31507;51.494;7.518;2022-09-09T08:11:22;18.40;99.90
45807;DHT22;31507;51.494;7.518;2022-09-09T08:13:49;18.30;99.90
45807;DHT22;31507;51.494;7.518;2022-09-09T08:16:19;18.60;99.90
45807;DHT22;31507;51.494;7.518;2022-09-09T08:18:50;19.20;99.90
45807;DHT22;31507;51.494;7.518;2022-09-09T08:21:22;19.40;99.90
45807;DHT22;31507;51.494;7.518;2022-09-09T08:23:51;19.20;99.90
45807;DHT22;31507;51.494;7.518;2022-09-09T08:26:20;18.90;99.90
45807;DHT22;31507;51.494;7.518;2022-09-09T08:28:53;18.80;99.90
45807;DHT22;31507;51.494;7.518;2022-09-09T08:31:21;18.60;99.90
45807;DHT22;31507;51.494;7.518;2022-09-09T08:33:47;18.60;99.90
45807;DHT22;31507;51.494;7.518;2022-09-09T08:36:20;18.70;99.90
45807;DHT22;31507;51.494;7.518;2022-09-09T08:38:47;18.80;99.90
45807;DHT22;31507;51.494;7.518;2022-09-09T08:50:07;19.50;99.90
45807;DHT22;31507;51.494;7.518;2022-09-09T08:55:48;19.60;99.90
45807;DHT22;31507;51.494;7.518;2022-09-09T09:06:30;20.30;98.50
45807;DHT22;31507;51.494;7.518;2022-09-09T09:09:32;20.40;99.90
45807;DHT22;31507;51.494;7.518;2022-09-09T09:12:17;20.80;95.60
45807;DHT22;31507;51.494;7.518;2022-09-09T09:14:45;20.80;97.40
45807;DHT22;31507;51.494;7.518;2022-09-09T09:17:14;20.80;97.00
45807;DHT22;31507;51.494;7.518;2022-09-09T09:19:42;20.70;95.50
45807;DHT22;31507;51.494;7.518;2022-09-09T09:24:52;20.90;95.80
45807;DHT22;31507;51.494;7.518;2022-09-09T09:27:43;21.40;94.30
45807;DHT22;31507;51.494;7.518;2022-09-09T09:30:21;21.80;92.90
45807;DHT22;31507;51.494;7.518;2022-09-09T09:35:22;22.80;91.70
45807;DHT22;31507;51.494;7.518;2022-09-09T09:37:48;22.50;91.60
45807;DHT22;31507;51.494;7.518;2022-09-09T09:40:18;22.20;91.90
45807;DHT22;31507;51.494;7.518;2022-09-09T09:45:33;22.40;90.80
45807;DHT22;31507;51.494;7.518;2022-09-09T09:48:01;22.80;87.10
45807;DHT22;31507;51.494;7.518;2022-09-09T09:50:28;22.40;90.50
45807;DHT22;31507;51.494;7.518;2022-09-09T09:52:59;22.20;88.50
45807;DHT22;31507;51.494;7.518;2022-09-09T09:55:26;21.90;89.70
45807;DHT22;31507;51.494;7.518;2022-09-09T09:57:52;21.50;90.30
45807;DHT22;31507;51.494;7.518;2022-09-09T10:00:19;21.20;90.50
45807;DHT22;31507;51.494;7.518;2022-09-09T10:02:47;20.90;90.40
45807;DHT22;31507;51.494;7.518;2022-09-09T10:05:25;20.80;90.90
45807;DHT22;31507;51.494;7.518;2022-09-09T10:08:24;20.70;90.80
45807;DHT22;31507;51.494;7.518;2022-09-09T10:11:12;20.90;90.50
45807;DHT22;31507;51.494;7.518;2022-09-09T10:19:21;21.90;90.10
45807;DHT22;31507;51.494;7.518;2022-09-09T10:33:04;22.00;86.70
45807;DHT22;31507;51.494;7.518;2022-09-09T10:35:53;22.00;85.60
45807;DHT22;31507;51.494;7.518;2022-09-09T10:44:12;22.20;83.60
45807;DHT22;31507;51.494;7.518;2022-09-09T10:52:15;21.60;85.70
45807;DHT22;31507;51.494;7.518;2022-09-09T10:55:00;21.80;82.90
45807;DHT22;31507;51.494;7.518;2022-09-09T10:57:44;22.10;82.50
45807;DHT22;31507;51.494;7.518;2022-09-09T11:00:23;22.60;81.00
45807;DHT22;31507;51.494;7.518;2022-09-09T11:02:58;22.60;80.20
45807;DHT22;31507;51.494;7.518;2022-09-09T11:05:45;22.60;81.20
45807;DHT22;31507;51.494;7.518;2022-09-09T11:08:26;22.60;81.60
45807;DHT22;31507;51.494;7.518;2022-09-09T11:11:14;22.20;80.90
45807;DHT22;31507;51.494;7.518;2022-09-09T11:13:53;21.70;80.70
45807;DHT22;31507;51.494;7.518;2022-09-09T11:16:23;21.80;82.70
45807;DHT22;31507;51.494;7.518;2022-09-09T11:18:57;21.60;82.40
45807;DHT22;31507;51.494;7.518;2022-09-09T11:21:34;21.20;82.40
45807;DHT22;31507;51.494;7.518;2022-09-09T11:24:06;21.00;83.10
45807;DHT22;31507;51.494;7.518;2022-09-09T11:26:47;21.40;83.90
45807;DHT22;31507;51.494;7.518;2022-09-09T11:29:38;21.70;83.40
45807;DHT22;31507;51.494;7.518;2022-09-09T11:32:26;21.80;81.10
45807;DHT22;31507;51.494;7.518;2022-09-09T11:35:30;22.00;82.90
45807;DHT22;31507;51.494;7.518;2022-09-09T11:40:28;22.40;80.50
45807;DHT22;31507;51.494;7.518;2022-09-09T11:43:16;22.20;82.50
45807;DHT22;31507;51.494;7.518;2022-09-09T11:45:52;22.30;81.40
45807;DHT22;31507;51.494;7.518;2022-09-09T11:51:09;21.60;82.30
45807;DHT22;31507;51.494;7.518;2022-09-09T11:53:53;21.50;83.10
45807;DHT22;31507;51.494;7.518;2022-09-09T11:59:01;21.50;83.00
45807;DHT22;31507;51.494;7.518;2022-09-09T12:01:33;21.40;83.20
45807;DHT22;31507;51.494;7.518;2022-09-09T12:06:46;21.60;83.20
45807;DHT22;31507;51.494;7.518;2022-09-09T12:14:54;22.20;80.60
45807;DHT22;31507;51.494;7.518;2022-09-09T12:17:24;21.90;80.00
45807;DHT22;31507;51.494;7.518;2022-09-09T12:20:02;21.60;81.70
45807;DHT22;31507;51.494;7.518;2022-09-09T12:22:54;21.50;82.00
45807;DHT22;31507;51.494;7.518;2022-09-09T12:29:01;21.30;81.10
45807;DHT22;31507;51.494;7.518;2022-09-09T12:32:27;21.10;82.40
45807;DHT22;31507;51.494;7.518;2022-09-09T12:37:36;20.80;83.30
45807;DHT22;31507;51.494;7.518;2022-09-09T12:40:04;20.60;84.60
45807;DHT22;31507;51.494;7.518;2022-09-09T12:42:31;20.40;86.40
45807;DHT22;31507;51.494;7.518;2022-09-09T12:45:00;19.80;90.40
45807;DHT22;31507;51.494;7.518;2022-09-09T12:49:55;18.30;95.40
45807;DHT22;31507;51.494;7.518;2022-09-09T12:55:28;17.30;99.90
45807;DHT22;31507;51.494;7.518;2022-09-09T12:57:56;17.20;99.90
45807;DHT22;31507;51.494;7.518;2022-09-09T13:00:24;17.30;99.90
45807;DHT22;31507;51.494;7.518;2022-09-09T13:05:37;18.20;99.90
45807;DHT22;31507;51.494;7.518;2022-09-09T13:08:06;18.40;99.90
45807;DHT22;31507;51.494;7.518;2022-09-09T13:10:36;18.30;99.90
45807;DHT22;31507;51.494;7.518;2022-09-09T13:13:10;18.30;99.90
45807;DHT22;31507;51.494;7.518;2022-09-09T13:15:38;18.20;99.90
45807;DHT22;31507;51.494;7.518;2022-09-09T13:18:10;18.10;99.90
45807;DHT22;31507;51.494;7.518;2022-09-09T13:20:36;18.00;99.90
45807;DHT22;31507;51.494;7.518;2022-09-09T13:23:02;17.90;99.90
45807;DHT22;31507;51.494;7.518;2022-09-09T13:25:29;18.00;99.90
45807;DHT22;31507;51.494;7.518;2022-09-09T13:28:00;18.00;99.90
45807;DHT22;31507;51.494;7.518;2022-09-09T13:30:35;18.00;99.90
45807;DHT22;31507;51.494;7.518;2022-09-09T13:33:52;18.00;99.90
45807;DHT22;31507;51.494;7.518;2022-09-09T13:35:56;18.00;99.90
45807;DHT22;31507;51.494;7.518;2022-09-09T13:38:23;18.10;99.90
45807;DHT22;31507;51.494;7.518;2022-09-09T13:41:10;18.30;99.90
45807;DHT22;31507;51.494;7.518;2022-09-09T13:43:44;18.50;99.90
45807;DHT22;31507;51.494;7.518;2022-09-09T13:51:45;18.90;99.90
45807;DHT22;31507;51.494;7.518;2022-09-09T13:54:14;18.90;99.90
45807;DHT22;31507;51.494;7.518;2022-09-09T13:56:41;19.00;99.90
45807;DHT22;31507;51.494;7.518;2022-09-09T13:59:12;19.00;99.90
45807;DHT22;31507;51.494;7.518;2022-09-09T14:01:39;19.10;99.90
45807;DHT22;31507;51.494;7.518;2022-09-09T14:04:05;19.20;99.90
45807;DHT22;31507;51.494;7.518;2022-09-09T14:06:32;19.10;99.90
45807;DHT22;31507;51.494;7.518;2022-09-09T14:08:58;19.10;99.90
45807;DHT22;31507;51.494;7.518;2022-09-09T14:11:24;19.10;99.90
45807;DHT22;31507;51.494;7.518;2022-09-09T14:13:50;18.90;99.90
45807;DHT22;31507;51.494;7.518;2022-09-09T14:16:19;18.80;99.90
45807;DHT22;31507;51.494;7.518;2022-09-09T14:18:45;18.50;99.90
45807;DHT22;31507;51.494;7.518;2022-09-09T14:21:11;18.00;99.90
45807;DHT22;31507;51.494;7.518;2022-09-09T14:23:38;17.60;99.90
45807;DHT22;31507;51.494;7.518;2022-09-09T14:26:04;17.40;99.90
45807;DHT22;31507;51.494;7.518;2022-09-09T14:28:31;17.20;99.90
45807;DHT22;31507;51.494;7.518;2022-09-09T14:30:59;17.00;99.90
45807;DHT22;31507;51.494;7.518;2022-09-09T14:33:26;17.00;99.90
45807;DHT22;31507;51.494;7.518;2022-09-09T14:35:58;17.00;99.90
45807;DHT22;31507;51.494;7.518;2022-09-09T14:38:24;17.00;99.90
45807;DHT22;31507;51.494;7.518;2022-09-09T14:40:50;17.00;99.90
45807;DHT22;31507;51.494;7.518;2022-09-09T14:43:16;17.30;99.90
45807;DHT22;31507;51.494;7.518;2022-09-09T14:45:41;17.90;99.90
45807;DHT22;31507;51.494;7.518;2022-09-09T14:48:08;18.60;99.90
45807;DHT22;31507;51.494;7.518;2022-09-09T14:50:34;18.90;99.90
45807;DHT22;31507;51.494;7.518;2022-09-09T14:53:04;19.00;99.90
45807;DHT22;31507;51.494;7.518;2022-09-09T14:55:31;19.00;99.90
45807;DHT22;31507;51.494;7.518;2022-09-09T14:57:56;19.10;99.90
45807;DHT22;31507;51.494;7.518;2022-09-09T15:00:23;19.20;99.90
45807;DHT22;31507;51.494;7.518;2022-09-09T15:02:55;19.10;99.90
45807;DHT22;31507;51.494;7.518;2022-09-09T15:05:21;19.10;99.90
45807;DHT22;31507;51.494;7.518;2022-09-09T15:07:46;19.00;99.90
45807;DHT22;31507;51.494;7.518;2022-09-09T15:10:14;18.90;99.90
45807;DHT22;31507;51.494;7.518;2022-09-09T15:12:39;18.80;99.90
45807;DHT22;31507;51.494;7.518;2022-09-09T15:15:07;18.70;99.90
45807;DHT22;31507;51.494;7.518;2022-09-09T15:17:34;18.50;99.90
45807;DHT22;31507;51.494;7.518;2022-09-09T15:20:00;18.50;99.90
45807;DHT22;31507;51.494;7.518;2022-09-09T15:22:26;18.50;99.90
45807;DHT22;31507;51.494;7.518;2022-09-09T15:24:52;18.50;99.90
45807;DHT22;31507;51.494;7.518;2022-09-09T15:27:18;18.70;99.90
45807;DHT22;31507;51.494;7.518;2022-09-09T15:29:43;18.90;99.90
45807;DHT22;31507;51.494;7.518;2022-09-09T15:32:10;18.90;99.90
45807;DHT22;31507;51.494;7.518;2022-09-09T15:34:35;18.90;99.90
45807;DHT22;31507;51.494;7.518;2022-09-09T15:37:01;18.70;99.90
45807;DHT22;31507;51.494;7.518;2022-09-09T15:39:27;18.50;99.90
45807;DHT22;31507;51.494;7.518;2022-09-09T15:41:53;18.20;99.90
45807;DHT22;31507;51.494;7.518;2022-09-09T15:44:19;17.80;99.90
45807;DHT22;31507;51.494;7.518;2022-09-09T15:46:48;17.40;99.90
45807;DHT22;31507;51.494;7.518;2022-09-09T15:51:45;16.70;99.90
45807;DHT22;31507;51.494;7.518;2022-09-09T15:54:18;16.40;99.90
45807;DHT22;31507;51.494;7.518;2022-09-09T15:56:46;16.00;99.90
45807;DHT22;31507;51.494;7.518;2022-09-09T15:59:14;15.60;99.90
45807;DHT22;31507;51.494;7.518;2022-09-09T16:01:41;15.30;99.90
45807;DHT22;31507;51.494;7.518;2022-09-09T16:04:09;15.00;99.90
45807;DHT22;31507;51.494;7.518;2022-09-09T16:06:34;14.80;99.90
45807;DHT22;31507;51.494;7.518;2022-09-09T16:09:03;14.70;99.90
45807;DHT22;31507;51.494;7.518;2022-09-09T16:11:37;14.50;99.90
45807;DHT22;31507;51.494;7.518;2022-09-09T16:14:03;14.50;99.90
45807;DHT22;31507;51.494;7.518;2022-09-09T16:16:30;14.40;99.90
45807;DHT22;31507;51.494;7.518;2022-09-09T16:18:58;14.40;99.90
45807;DHT22;31507;51.494;7.518;2022-09-09T16:21:28;14.30;99.90
45807;DHT22;31507;51.494;7.518;2022-09-09T16:23:55;14.30;99.90
45807;DHT22;31507;51.494;7.518;2022-09-09T16:26:21;14.30;99.90
45807;DHT22;31507;51.494;7.518;2022-09-09T16:28:48;14.30;99.90
45807;DHT22;31507;51.494;7.518;2022-09-09T16:31:19;14.30;99.90
45807;DHT22;31507;51.494;7.518;2022-09-09T16:33:46;14.30;99.90
45807;DHT22;31507;51.494;7.518;2022-09-09T16:36:16;14.30;99.90
45807;DHT22;31507;51.494;7.518;2022-09-09T16:38:42;14.30;99.90
45807;DHT22;31507;51.494;7.518;2022-09-09T16:41:10;14.30;99.90
45807;DHT22;31507;51.494;7.518;2022-09-09T16:43:37;14.40;99.90
45807;DHT22;31507;51.494;7.518;2022-09-09T16:46:13;14.40;99.90
45807;DHT22;31507;51.494;7.518;2022-09-09T16:48:41;14.40;99.90
45807;DHT22;31507;51.494;7.518;2022-09-09T16:51:11;14.50;99.90
45807;DHT22;31507;51.494;7.518;2022-09-09T16:53:37;14.50;99.90
45807;DHT22;31507;51.494;7.518;2022-09-09T16:56:07;14.50;99.90
45807;DHT22;31507;51.494;7.518;2022-09-09T16:58:33;14.50;99.90
45807;DHT22;31507;51.494;7.518;2022-09-09T17:01:00;14.50;99.90
45807;DHT22;31507;51.494;7.518;2022-09-09T17:03:27;14.60;99.90
45807;DHT22;31507;51.494;7.518;2022-09-09T17:05:53;14.50;99.90
45807;DHT22;31507;51.494;7.518;2022-09-09T17:08:18;14.60;99.90
45807;DHT22;31507;51.494;7.518;2022-09-09T17:10:44;14.50;99.90
45807;DHT22;31507;51.494;7.518;2022-09-09T17:13:11;14.60;99.90
45807;DHT22;31507;51.494;7.518;2022-09-09T17:15:41;14.60;99.90
45807;DHT22;31507;51.494;7.518;2022-09-09T17:18:11;14.50;99.90
45807;DHT22;31507;51.494;7.518;2022-09-09T17:20:38;14.60;99.90
45807;DHT22;31507;51.494;7.518;2022-09-09T17:23:05;14.60;99.90
45807;DHT22;31507;51.494;7.518;2022-09-09T17:25:31;14.60;99.90
45807;DHT22;31507;51.494;7.518;2022-09-09T17:27:57;14.60;99.90
45807;DHT22;31507;51.494;7.518;2022-09-09T17:30:23;14.70;99.90
45807;DHT22;31507;51.494;7.518;2022-09-09T17:32:49;14.70;99.90
45807;DHT22;31507;51.494;7.518;2022-09-09T17:35:14;14.70;99.90
45807;DHT22;31507;51.494;7.518;2022-09-09T17:37:40;14.70;99.90
45807;DHT22;31507;51.494;7.518;2022-09-09T17:40:07;14.70;99.90
45807;DHT22;31507;51.494;7.518;2022-09-09T17:42:34;14.70;99.90
45807;DHT22;31507;51.494;7.518;2022-09-09T17:45:00;14.70;99.90
45807;DHT22;31507;51.494;7.518;2022-09-09T17:47:26;14.60;99.90
45807;DHT22;31507;51.494;7.518;2022-09-09T17:49:53;14.60;99.90
45807;DHT22;31507;51.494;7.518;2022-09-09T17:52:20;14.60;99.90
45807;DHT22;31507;51.494;7.518;2022-09-09T17:54:46;14.60;99.90
45807;DHT22;31507;51.494;7.518;2022-09-09T17:57:12;14.60;99.90
45807;DHT22;31507;51.494;7.518;2022-09-09T17:59:37;14.70;99.90
45807;DHT22;31507;51.494;7.518;2022-09-09T18:02:03;14.70;99.90
45807;DHT22;31507;51.494;7.518;2022-09-09T18:04:30;14.70;99.90
45807;DHT22;31507;51.494;7.518;2022-09-09T18:06:56;14.70;99.90
45807;DHT22;31507;51.494;7.518;2022-09-09T18:09:24;14.70;99.90
45807;DHT22;31507;51.494;7.518;2022-09-09T18:11:53;14.70;99.90
45807;DHT22;31507;51.494;7.518;2022-09-09T18:14:23;14.70;99.90
45807;DHT22;31507;51.494;7.518;2022-09-09T18:16:50;14.70;99.90